createdAt,value
2024-04-12T00:01:15.000Z,-1.00
2024-04-12T00:06:31.596Z,-1.00
2024-04-12T00:11:34.883Z,-1.00
2024-04-12T00:16:45.483Z,-1.00
2024-04-12T00:21:53.005Z,-1.00
2024-04-12T00:26:56.407Z,-1.00
2024-04-12T00:32:05.516Z,-1.00
2024-04-12T00:37:10.589Z,-1.00
2024-04-12T00:42:14.953Z,-1.00
2024-04-12T00:47:18.393Z,-1.00
2024-04-12T00:52:28.941Z,-1.00
2024-04-12T00:57:37.941Z,-1.00
2024-04-12T01:02:44.353Z,-1.00
2024-04-12T01:07:52.847Z,-1.00
2024-04-12T01:13:04.444Z,-1.00
2024-04-12T01:18:16.488Z,-1.00
2024-04-12T01:23:21.029Z,-1.00
2024-04-12T01:28:24.675Z,-1.00
2024-04-12T01:33:27.985Z,-1.00
2024-04-12T01:38:32.938Z,-1.00
2024-04-12T01:43:39.683Z,-1.00
2024-04-12T01:48:46.315Z,-1.00
2024-04-12T01:53:55.724Z,-1.00
2024-04-12T01:59:00.900Z,-1.00
2024-04-12T02:04:04.362Z,-1.00
2024-04-12T02:09:07.930Z,-1.00
2024-04-12T02:14:11.600Z,-1.00
2024-04-12T02:19:14.898Z,-1.00
2024-04-12T02:24:20.779Z,-1.00
2024-04-12T02:29:24.033Z,-1.00
2024-04-12T02:34:27.604Z,-1.00
2024-04-12T02:39:30.824Z,-1.00
2024-04-12T02:44:34.439Z,-1.00
2024-04-12T02:49:41.546Z,-1.00
2024-04-12T02:54:46.854Z,-1.00
2024-04-12T02:59:54.032Z,-1.00
2024-04-12T03:04:57.353Z,-1.00
2024-04-12T03:10:21.230Z,-1.00
2024-04-12T03:15:27.107Z,-1.00
2024-04-12T03:20:34.354Z,-1.00
2024-04-12T03:25:40.394Z,-1.00
2024-04-12T03:30:45.145Z,-1.00
2024-04-12T03:35:48.932Z,-1.00
2024-04-12T03:40:59.988Z,-1.00
2024-04-12T03:46:03.342Z,-1.00
2024-04-12T03:51:07.869Z,-1.00
2024-04-12T03:56:13.838Z,-1.00
2024-04-12T04:01:17.176Z,-1.00
2024-04-12T04:06:22.852Z,-1.00
2024-04-12T04:11:27.322Z,-1.00
2024-04-12T04:16:38.015Z,-1.00
2024-04-12T04:21:42.768Z,-1.00
2024-04-12T04:26:45.981Z,-1.00
2024-04-12T04:31:54.186Z,-1.00
2024-04-12T04:37:00.024Z,-1.00
2024-04-12T04:42:06.511Z,-1.00
2024-04-12T04:47:11.415Z,-1.00
2024-04-12T04:52:17.027Z,-1.00
2024-04-12T04:57:22.049Z,-1.00
2024-04-12T05:02:36.878Z,-1.00
2024-04-12T05:07:45.693Z,-1.00
2024-04-12T05:12:51.622Z,-1.00
2024-04-12T05:17:56.804Z,-1.00
2024-04-12T05:23:02.041Z,-1.00
2024-04-12T05:28:08.348Z,-1.00
2024-04-12T05:33:21.792Z,-1.00
2024-04-12T05:38:39.428Z,-1.00
2024-04-12T05:43:43.024Z,-1.00
2024-04-12T05:48:46.650Z,-1.00
2024-04-12T05:53:53.179Z,-1.00
2024-04-12T05:58:58.613Z,-1.00
2024-04-12T06:04:02.999Z,-1.00
2024-04-12T06:09:39.055Z,-1.00
2024-04-12T06:15:05.752Z,-1.00
2024-04-12T06:20:10.920Z,-1.00
2024-04-12T06:25:33.874Z,-1.00
2024-04-12T06:30:39.810Z,-1.00
2024-04-12T06:35:46.409Z,-1.00
2024-04-12T06:40:54.817Z,-1.00
2024-04-12T06:46:18.358Z,-1.00
2024-04-12T06:51:26.368Z,-1.00
2024-04-12T06:56:35.236Z,-1.00
2024-04-12T07:01:41.524Z,-1.00
2024-04-12T07:06:45.346Z,-1.00
2024-04-12T07:11:49.696Z,-1.00
2024-04-12T07:16:59.948Z,-1.00
2024-04-12T07:22:05.191Z,-1.00
2024-04-12T07:27:16.563Z,-1.00
2024-04-12T07:32:24.167Z,-1.00
2024-04-12T07:38:28.030Z,-1.00
2024-04-12T08:17:02.706Z,61.61
2024-04-12T08:22:08.670Z,-1.00
2024-04-12T08:27:12.918Z,-1.00
2024-04-12T08:33:07.227Z,-1.00
2024-04-12T08:38:14.165Z,-1.00
2024-04-12T08:52:26.435Z,69.67
2024-04-12T08:57:36.610Z,69.09
2024-04-12T09:03:27.280Z,68.69
2024-04-12T09:08:41.600Z,67.48
2024-04-12T09:13:49.040Z,67.35
2024-04-12T09:18:53.718Z,68.78
2024-04-12T09:24:12.590Z,67.63
2024-04-12T09:29:59.911Z,66.56
2024-04-12T09:35:06.466Z,65.45
2024-04-12T09:40:12.607Z,62.17
2024-04-12T09:45:26.273Z,60.99
2024-04-12T09:51:08.151Z,61.04
2024-04-12T09:56:36.290Z,60.00
2024-04-12T10:02:02.455Z,58.63
2024-04-12T10:07:27.798Z,57.05
2024-04-12T10:12:55.026Z,57.18
2024-04-12T10:18:21.723Z,57.11
2024-04-12T10:23:50.837Z,56.53
2024-04-12T10:29:13.888Z,55.05
2024-04-12T10:34:36.662Z,55.20
2024-04-12T10:39:46.450Z,55.83
2024-04-12T10:44:53.179Z,55.37
2024-04-12T10:50:03.429Z,55.08
2024-04-12T10:55:11.073Z,55.90
2024-04-12T11:00:17.629Z,56.67
2024-04-12T11:05:24.234Z,57.18
2024-04-12T11:10:48.141Z,57.59
2024-04-12T11:15:51.788Z,57.82
2024-04-12T11:21:23.361Z,58.40
2024-04-12T11:26:48.937Z,59.61
2024-04-12T11:32:15.412Z,59.76
2024-04-12T11:37:48.764Z,59.49
2024-04-12T11:42:58.158Z,58.96
2024-04-12T11:48:01.860Z,57.87
2024-04-12T11:53:12.254Z,58.74
2024-04-12T11:58:22.843Z,59.65
2024-04-12T12:03:37.809Z,60.63
2024-04-12T12:08:44.161Z,59.47
2024-04-12T12:20:03.239Z,57.73
2024-04-12T12:25:12.391Z,57.36
2024-04-12T12:30:16.388Z,57.94
2024-04-12T12:35:27.679Z,56.58
2024-04-12T12:40:31.732Z,54.98
2024-04-12T12:45:37.434Z,54.90
2024-04-12T12:50:41.494Z,54.58
2024-04-12T12:55:45.136Z,53.74
2024-04-12T13:00:49.208Z,53.63
2024-04-12T13:05:54.408Z,52.91
2024-04-12T13:11:01.409Z,53.61
2024-04-12T13:16:12.683Z,54.07
2024-04-12T13:21:16.836Z,53.88
2024-04-12T13:26:25.121Z,53.77
2024-04-12T13:31:31.344Z,53.73
2024-04-12T13:36:36.173Z,54.18
2024-04-12T13:41:42.147Z,53.73
2024-04-12T13:47:07.191Z,54.09
2024-04-12T13:52:14.666Z,54.25
2024-04-12T13:57:19.253Z,54.81
2024-04-12T14:02:28.970Z,54.53
2024-04-12T14:07:36.589Z,54.58
2024-04-12T14:12:40.028Z,55.29
2024-04-12T14:17:44.706Z,55.38
2024-04-12T14:22:48.639Z,55.32
2024-04-12T14:27:52.187Z,55.78
2024-04-12T14:32:56.132Z,55.15
2024-04-12T14:37:59.555Z,54.22
2024-04-12T14:43:06.737Z,54.06
2024-04-12T14:48:14.440Z,54.67
2024-04-12T14:53:18.397Z,54.93
2024-04-12T14:58:21.866Z,54.97
2024-04-12T15:03:44.265Z,55.58
2024-04-12T15:09:06.658Z,56.45
2024-04-12T15:14:28.771Z,57.15
2024-04-12T15:19:50.894Z,57.84
2024-04-12T15:25:12.805Z,58.05
2024-04-12T15:30:35.235Z,58.36
2024-04-12T15:35:59.550Z,59.13
2024-04-12T15:41:21.588Z,59.73
2024-04-12T15:46:44.226Z,60.37
2024-04-12T15:51:47.569Z,61.75
2024-04-12T15:57:10.133Z,63.09
2024-04-12T16:02:32.301Z,63.85
2024-04-12T16:07:54.143Z,64.36
2024-04-12T16:12:57.508Z,65.08
2024-04-12T16:18:03.969Z,66.06
2024-04-12T16:23:07.903Z,66.84
2024-04-12T16:28:12.908Z,67.58
2024-04-12T16:33:20.157Z,68.22
2024-04-12T16:38:23.991Z,68.91
2024-04-12T16:43:28.254Z,69.68
2024-04-12T16:48:33.274Z,70.28
2024-04-12T16:53:39.201Z,70.56
2024-04-12T16:58:46.116Z,71.25
2024-04-12T17:03:52.738Z,72.24
2024-04-12T17:08:56.289Z,72.82
2024-04-12T17:14:05.331Z,73.92
2024-04-12T17:19:10.877Z,74.55
2024-04-12T17:24:15.280Z,75.01
2024-04-12T17:29:19.096Z,76.59
2024-04-12T17:34:24.485Z,77.47
2024-04-12T17:39:28.071Z,78.79
2024-04-12T17:44:36.091Z,79.63
2024-04-12T17:49:39.519Z,79.89
2024-04-12T17:54:42.788Z,80.95
2024-04-12T17:59:46.652Z,82.12
2024-04-12T18:04:50.659Z,82.95
2024-04-12T18:09:55.369Z,84.02
2024-04-12T18:15:02.044Z,86.76
2024-04-12T18:20:10.754Z,87.67
2024-04-12T18:25:14.200Z,88.84
2024-04-12T18:30:20.526Z,89.85
2024-04-12T18:35:30.715Z,90.82
2024-04-12T18:40:52.447Z,90.36
2024-04-12T18:45:56.105Z,91.22
2024-04-12T18:50:59.728Z,91.01
2024-04-12T18:56:04.078Z,90.98
2024-04-12T19:01:08.477Z,90.24
2024-04-12T19:06:12.304Z,90.62
2024-04-12T19:11:16.883Z,91.02
2024-04-12T19:16:20.571Z,90.71
2024-04-12T19:21:26.061Z,90.85
2024-04-12T19:26:29.777Z,91.53
2024-04-12T19:31:36.754Z,91.82
2024-04-12T19:36:47.983Z,92.11
2024-04-12T19:41:53.115Z,93.13
2024-04-12T19:46:57.473Z,93.71
2024-04-12T19:52:04.140Z,94.23
2024-04-12T19:57:07.820Z,95.06
2024-04-12T20:02:11.139Z,96.09
2024-04-12T20:07:14.532Z,96.70
2024-04-12T20:12:21.763Z,97.26
2024-04-12T20:17:26.035Z,97.36
2024-04-12T20:22:33.766Z,97.41
2024-04-12T20:27:37.830Z,97.88
2024-04-12T20:32:42.162Z,97.33
2024-04-12T20:37:47.013Z,97.33
2024-04-12T20:42:51.069Z,97.20
2024-04-12T20:47:54.949Z,96.88
2024-04-12T20:53:01.038Z,96.74
2024-04-12T20:58:04.836Z,97.51
2024-04-12T21:03:08.116Z,99.28
2024-04-12T21:08:13.284Z,99.97
2024-04-12T21:13:16.431Z,100.00
2024-04-12T21:18:20.593Z,100.00
2024-04-12T21:23:28.304Z,100.00
2024-04-12T21:28:35.141Z,100.00
2024-04-12T21:33:38.928Z,100.00
2024-04-12T21:38:43.767Z,100.00
2024-04-12T21:43:52.160Z,100.00
2024-04-12T21:48:55.539Z,100.00
2024-04-12T21:54:02.113Z,100.00
2024-04-12T21:59:05.482Z,100.00
2024-04-12T22:04:08.788Z,100.00
2024-04-12T22:09:12.167Z,100.00
2024-04-12T22:14:15.765Z,100.00
2024-04-12T22:19:20.241Z,100.00
2024-04-12T22:24:24.478Z,100.00
2024-04-12T22:29:27.697Z,100.00
2024-04-12T22:34:31.258Z,100.00
2024-04-12T22:39:34.503Z,100.00
2024-04-12T22:44:38.134Z,100.00
2024-04-12T22:49:41.363Z,100.00
2024-04-12T22:54:45.846Z,100.00
2024-04-12T22:59:49.364Z,100.00
2024-04-12T23:04:52.578Z,100.00
2024-04-12T23:09:55.759Z,100.00
2024-04-12T23:14:59.461Z,100.00
2024-04-12T23:20:02.798Z,100.00
2024-04-12T23:25:06.279Z,100.00
2024-04-12T23:30:10.303Z,100.00
2024-04-12T23:35:13.781Z,100.00
2024-04-12T23:40:18.112Z,100.00
2024-04-12T23:45:21.682Z,100.00
2024-04-12T23:50:27.963Z,100.00
2024-04-12T23:55:32.345Z,100.00
